Maysfield, Texas
Current Conditions -  °F | °C
As of 10:35 AM on Saturday 22 Nov 2014 (Local Time) from KT35 Reporting Station
Thunderstorm Thunderstorm  
Wind Chill: 63°   Ceiling: 10000
Heat Index: 63°   Visibility: 5mi
Dew Point: 62°   Wind: 15mph
Humidity: 96%   Direction: 140°SE
Pressure: 30.01"   Gusts: 24mph
Location:  30.9°N, 96.85°W
Report Text: KT35 221635Z AUTO 14013G21KT 5SM -VCTSRA SCT006 SCT024 OVC100 17/17 A3001 RMK AO2 LTG DSNT ALQS P0005 T01710165
Loading
Personal Weather Stations






























Interactive Weather Map New forecast layout! Learn more

10-Day Weather Forecast

Advertisements
Track Severe Weather on mobile